Buxtehude — V2BY8 — position and weather

sailwx.info

Track history (hours):
 
Tides and Currents Weather Stations Pressure Air Temp Water Temp Dewpoint Dewpoint Depression Visibility Wind Speed Wind Dir Waves Ship Positions

Buxtehude

Last reported at 2016-May-03 19:32 UTC. Time now 2016-May-03 20:07 UTC.
Position N 38°31' W 008°52'.

Length 134 m; draft 8.1 m.

Type: Ship (hazmat cat A). MMSI: 304962000.

Date/timePositionNaut miles runAvg speedWind from/ knotsBaromVisibWave heightAir tempDewpointWater temp
2016-May-03 19:32N 38°31' W 008°52'0 0.0
2016-May-03 18:29N 38°31' W 008°52'0 0.0
2016-May-03 17:26N 38°31' W 008°52'0 0.0
2016-May-03 16:28N 38°31' W 008°52'0 0.0
2016-May-03 15:31N 38°31' W 008°52'0 0.0
2016-May-03 14:18N 38°31' W 008°52'0 0.0
2016-May-03 13:33N 38°31' W 008°52'0 0.0
2016-May-03 12:29N 38°31' W 008°52'0 0.0
2016-May-03 11:26N 38°31' W 008°52'0 0.0
2016-May-03 10:32N 38°31' W 008°52'0 0.0
2016-May-03 09:31N 38°31' W 008°52'0 0.0
2016-May-03 08:28N 38°31' W 008°52'0 0.0
2016-May-03 07:33N 38°31' W 008°52'0 0.0
2016-May-03 06:33N 38°31' W 008°52'0 0.0
2016-May-03 05:32N 38°31' W 008°52'0 0.0
2016-May-03 04:32N 38°31' W 008°52'0 0.0
2016-May-03 03:32N 38°31' W 008°52'0 0.0
2016-May-03 02:31N 38°31' W 008°52'0 0.0
2016-May-03 01:31N 38°31' W 008°52'0 0.0
2016-May-03 00:33N 38°31' W 008°52'0 0.0
2016-May-02 23:33N 38°31' W 008°52'0 0.0
2016-May-02 22:32N 38°31' W 008°52'0 0.0
2016-May-02 21:20N 38°31' W 008°52'0 0.0
2016-May-02 20:10N 38°31' W 008°52'0 0.0
2016-May-02 19:31N 38°31' W 008°52'0 0.0
2016-May-02 18:33N 38°31' W 008°52'1110.5
2016-May-02 17:33N 38°22' W 009°00'4 4.4
2016-May-02 16:33N 38°18' W 009°01'1 0.6
2016-May-02 15:33N 38°18' W 009°02'1 0.6
2016-May-02 14:32N 38°19' W 009°03'0 0.1
2016-May-02 13:33N 38°19' W 009°03'0 0.5
2016-May-02 12:33N 38°19' W 009°03'0 0.2
2016-May-02 11:33N 38°19' W 009°02'0 0.5
2016-May-02 10:33N 38°20' W 009°02'1 0.6
2016-May-02 09:33N 38°20' W 009°01'6 6.2
2016-May-02 08:32N 38°23' W 009°08'1 0.9
2016-May-02 07:33N 38°23' W 009°07'1 1.4
2016-May-02 06:33N 38°23' W 009°05'1 1.3
2016-May-02 05:33N 38°22' W 009°03'1 1.3
2016-May-02 04:33N 38°22' W 009°02'1 1.1
2016-May-02 03:33N 38°23' W 009°00'9 9.4
2016-May-02 02:33N 38°14' W 009°00'1413.9
2016-May-02 01:33N 37°60' W 008°58'7 6.9
2016-May-02 00:33N 37°56' W 008°51'0 0.0
2016-May-01 23:31N 37°56' W 008°51'0 0.0
2016-May-01 22:31N 37°56' W 008°51'0 0.0
2016-May-01 21:30N 37°56' W 008°51'0 0.0
2016-May-01 20:33N 37°56' W 008°51'0 0.0
2016-May-01 19:33N 37°56' W 008°51'0 0.0
2016-May-01 18:32N 37°56' W 008°51'0 0.0
2016-May-01 17:32N 37°56' W 008°51'0 0.0
2016-May-01 16:31N 37°56' W 008°51'0 0.0
2016-May-01 15:31N 37°56' W 008°51'0 0.0
2016-May-01 14:33N 37°56' W 008°51'0 0.0
2016-May-01 13:33N 37°56' W 008°51'0 0.0
2016-May-01 12:32N 37°56' W 008°51'5 5.5
2016-May-01 11:33N 37°59' W 008°57'1515.0
2016-May-01 10:33N 38°10' W 009°10'1515.1
2016-May-01 09:33N 38°21' W 009°23'2 2.1
2016-May-01 08:29N 38°22' W 009°25'1414.6
2016-May-01 07:33N 38°33' W 009°36'1414.2
2016-May-01 06:34N 38°46' W 009°43'1514.5
2016-May-01 05:33N 39°00' W 009°44'  
2016-Apr-26 11:16N 49°45' W 003°39'1216.5
2016-Apr-26 10:33N 49°50' W 003°23'1615.8
2016-Apr-26 09:34N 49°58' W 003°02'1515.1
2016-Apr-26 08:32N 50°03' W 002°39'7617.9
2016-Apr-26 04:16N 50°22' W 000°44'1319.0
2016-Apr-26 03:33N 50°26' W 000°23'1818.1
2016-Apr-26 02:34N 50°31' E 000°04'1717.3
2016-Apr-26 01:33N 50°36' E 000°30'2116.3
2016-Apr-26 00:16N 50°48' E 000°57'1216.5
2016-Apr-25 23:34N 50°55' E 001°12'1818.2
2016-Apr-25 22:33N 51°07' E 001°34'2019.7
2016-Apr-25 21:34N 51°21' E 001°56'1514.6
2016-Apr-25 20:33N 51°21' E 002°19'1615.9
2016-Apr-25 19:33N 51°22' E 002°45'1514.9
2016-Apr-25 18:33N 51°24' E 003°08'1717.0
2016-Apr-25 17:33N 51°26' E 003°36'1212.2
2016-Apr-25 16:33N 51°22' E 003°54'9 9.2
2016-Apr-25 15:33N 51°22' E 004°08'6 5.7
2016-Apr-25 14:33N 51°21' E 004°17'0 0.0
2016-Apr-25 13:33N 51°21' E 004°17'1 1.2
2016-Apr-25 12:33N 51°20' E 004°18'1 0.9
2016-Apr-25 11:30N 51°19' E 004°20'0 0.0
2016-Apr-25 10:32N 51°19' E 004°20'0 0.0
2016-Apr-25 09:33N 51°19' E 004°20'0 0.0
2016-Apr-25 08:29N 51°19' E 004°20'0 0.0
2016-Apr-25 07:32N 51°19' E 004°20'0 0.0
2016-Apr-25 06:31N 51°19' E 004°20'0 0.0
2016-Apr-25 05:31N 51°19' E 004°20'0 0.0
2016-Apr-25 04:27N 51°19' E 004°20'0 0.0
2016-Apr-25 03:30N 51°19' E 004°20'0 0.0
2016-Apr-25 02:33N 51°19' E 004°20'0 0.0
2016-Apr-25 01:26N 51°19' E 004°20'0 0.0
2016-Apr-25 00:32N 51°19' E 004°20'0 0.0
2016-Apr-24 23:31N 51°19' E 004°20'0 0.0
2016-Apr-24 22:31N 51°19' E 004°20'0 0.0
2016-Apr-24 21:30N 51°19' E 004°20'0 0.0
2016-Apr-24 20:33N 51°19' E 004°20'0 0.0
2016-Apr-24 19:30N 51°19' E 004°20'0 0.0
2016-Apr-24 18:32N 51°19' E 004°20'0 0.0
2016-Apr-24 17:33N 51°19' E 004°20'2 2.1
2016-Apr-24 16:33N 51°21' E 004°17'4 4.4
2016-Apr-24 15:34N 51°24' E 004°12'1111.1
2016-Apr-24 14:34N 51°22' E 003°55'1212.2
2016-Apr-24 13:33N 51°26' E 003°36'1211.7
2016-Apr-24 12:33N 51°24' E 003°17'1414.5
2016-Apr-24 11:34N 51°22' E 002°55'10 9.9
2016-Apr-24 10:31N 51°26' E 002°39'0 0.3
2016-Apr-24 09:24N 51°26' E 002°39'0 0.0
2016-Apr-24 08:32N 51°26' E 002°39'0 0.0
2016-Apr-24 07:29N 51°26' E 002°39'5 5.2
2016-Apr-24 06:28N 51°22' E 002°32'1314.2
2016-Apr-24 05:33N 51°19' E 002°13'1515.5
2016-Apr-24 04:33N 51°28' E 001°53'1514.7
2016-Apr-24 03:33N 51°25' E 001°30'1312.8
2016-Apr-24 02:33N 51°29' E 001°10'1616.1
2016-Apr-24 01:33N 51°30' E 000°45'1313.4
2016-Apr-24 00:34N 51°27' E 000°24'2 2.3
2016-Apr-23 23:34N 51°27' E 000°20'0 0.0
2016-Apr-23 22:33N 51°27' E 000°20'0 0.0
2016-Apr-23 21:34N 51°27' E 000°20'0 0.0
2016-Apr-23 20:33N 51°27' E 000°20'0 0.0
2016-Apr-23 19:34N 51°27' E 000°20'  
Track history (hours):
 
Tides and Currents Weather Stations Pressure Air Temp Water Temp Dewpoint Dewpoint Depression Visibility Wind Speed Wind Dir Waves Ship Positions

Buxtehude

Last reported at 2016-May-03 19:32 UTC. Time now 2016-May-03 20:07 UTC.
Position N 38°31' W 008°52'.

Length 134 m; draft 8.1 m.

Type: Ship (hazmat cat A). MMSI: 304962000.

Date/timePositionNaut miles runAvg speedWind from/ knotsBaromVisibWave heightAir tempDewpointWater temp
2016-May-03 19:32N 38°31' W 008°52'0 0.0
2016-May-03 18:29N 38°31' W 008°52'0 0.0
2016-May-03 17:26N 38°31' W 008°52'0 0.0
2016-May-03 16:28N 38°31' W 008°52'0 0.0
2016-May-03 15:31N 38°31' W 008°52'0 0.0
2016-May-03 14:18N 38°31' W 008°52'0 0.0
2016-May-03 13:33N 38°31' W 008°52'0 0.0
2016-May-03 12:29N 38°31' W 008°52'0 0.0
2016-May-03 11:26N 38°31' W 008°52'0 0.0
2016-May-03 10:32N 38°31' W 008°52'0 0.0
2016-May-03 09:31N 38°31' W 008°52'0 0.0
2016-May-03 08:28N 38°31' W 008°52'0 0.0
2016-May-03 07:33N 38°31' W 008°52'0 0.0
2016-May-03 06:33N 38°31' W 008°52'0 0.0
2016-May-03 05:32N 38°31' W 008°52'0 0.0
2016-May-03 04:32N 38°31' W 008°52'0 0.0
2016-May-03 03:32N 38°31' W 008°52'0 0.0
2016-May-03 02:31N 38°31' W 008°52'0 0.0
2016-May-03 01:31N 38°31' W 008°52'0 0.0
2016-May-03 00:33N 38°31' W 008°52'0 0.0
2016-May-02 23:33N 38°31' W 008°52'0 0.0
2016-May-02 22:32N 38°31' W 008°52'0 0.0
2016-May-02 21:20N 38°31' W 008°52'0 0.0
2016-May-02 20:10N 38°31' W 008°52'0 0.0
2016-May-02 19:31N 38°31' W 008°52'0 0.0
2016-May-02 18:33N 38°31' W 008°52'1110.5
2016-May-02 17:33N 38°22' W 009°00'4 4.4
2016-May-02 16:33N 38°18' W 009°01'1 0.6
2016-May-02 15:33N 38°18' W 009°02'1 0.6
2016-May-02 14:32N 38°19' W 009°03'0 0.1
2016-May-02 13:33N 38°19' W 009°03'0 0.5
2016-May-02 12:33N 38°19' W 009°03'0 0.2
2016-May-02 11:33N 38°19' W 009°02'0 0.5
2016-May-02 10:33N 38°20' W 009°02'1 0.6
2016-May-02 09:33N 38°20' W 009°01'6 6.2
2016-May-02 08:32N 38°23' W 009°08'1 0.9
2016-May-02 07:33N 38°23' W 009°07'1 1.4
2016-May-02 06:33N 38°23' W 009°05'1 1.3
2016-May-02 05:33N 38°22' W 009°03'1 1.3
2016-May-02 04:33N 38°22' W 009°02'1 1.1
2016-May-02 03:33N 38°23' W 009°00'9 9.4
2016-May-02 02:33N 38°14' W 009°00'1413.9
2016-May-02 01:33N 37°60' W 008°58'7 6.9
2016-May-02 00:33N 37°56' W 008°51'0 0.0
2016-May-01 23:31N 37°56' W 008°51'0 0.0
2016-May-01 22:31N 37°56' W 008°51'0 0.0
2016-May-01 21:30N 37°56' W 008°51'0 0.0
2016-May-01 20:33N 37°56' W 008°51'0 0.0
2016-May-01 19:33N 37°56' W 008°51'0 0.0
2016-May-01 18:32N 37°56' W 008°51'0 0.0
2016-May-01 17:32N 37°56' W 008°51'0 0.0
2016-May-01 16:31N 37°56' W 008°51'0 0.0
2016-May-01 15:31N 37°56' W 008°51'0 0.0
2016-May-01 14:33N 37°56' W 008°51'0 0.0
2016-May-01 13:33N 37°56' W 008°51'0 0.0
2016-May-01 12:32N 37°56' W 008°51'5 5.5
2016-May-01 11:33N 37°59' W 008°57'1515.0
2016-May-01 10:33N 38°10' W 009°10'1515.1
2016-May-01 09:33N 38°21' W 009°23'2 2.1
2016-May-01 08:29N 38°22' W 009°25'1414.6
2016-May-01 07:33N 38°33' W 009°36'1414.2
2016-May-01 06:34N 38°46' W 009°43'1514.5
2016-May-01 05:33N 39°00' W 009°44'  
2016-Apr-26 11:16N 49°45' W 003°39'1216.5
2016-Apr-26 10:33N 49°50' W 003°23'1615.8
2016-Apr-26 09:34N 49°58' W 003°02'1515.1
2016-Apr-26 08:32N 50°03' W 002°39'7617.9
2016-Apr-26 04:16N 50°22' W 000°44'1319.0
2016-Apr-26 03:33N 50°26' W 000°23'1818.1
2016-Apr-26 02:34N 50°31' E 000°04'1717.3
2016-Apr-26 01:33N 50°36' E 000°30'2116.3
2016-Apr-26 00:16N 50°48' E 000°57'1216.5
2016-Apr-25 23:34N 50°55' E 001°12'1818.2
2016-Apr-25 22:33N 51°07' E 001°34'2019.7
2016-Apr-25 21:34N 51°21' E 001°56'1514.6
2016-Apr-25 20:33N 51°21' E 002°19'1615.9
2016-Apr-25 19:33N 51°22' E 002°45'1514.9
2016-Apr-25 18:33N 51°24' E 003°08'1717.0
2016-Apr-25 17:33N 51°26' E 003°36'1212.2
2016-Apr-25 16:33N 51°22' E 003°54'9 9.2
2016-Apr-25 15:33N 51°22' E 004°08'6 5.7
2016-Apr-25 14:33N 51°21' E 004°17'0 0.0
2016-Apr-25 13:33N 51°21' E 004°17'1 1.2
2016-Apr-25 12:33N 51°20' E 004°18'1 0.9
2016-Apr-25 11:30N 51°19' E 004°20'0 0.0
2016-Apr-25 10:32N 51°19' E 004°20'0 0.0
2016-Apr-25 09:33N 51°19' E 004°20'0 0.0
2016-Apr-25 08:29N 51°19' E 004°20'0 0.0
2016-Apr-25 07:32N 51°19' E 004°20'0 0.0
2016-Apr-25 06:31N 51°19' E 004°20'0 0.0
2016-Apr-25 05:31N 51°19' E 004°20'0 0.0
2016-Apr-25 04:27N 51°19' E 004°20'0 0.0
2016-Apr-25 03:30N 51°19' E 004°20'0 0.0
2016-Apr-25 02:33N 51°19' E 004°20'0 0.0
2016-Apr-25 01:26N 51°19' E 004°20'0 0.0
2016-Apr-25 00:32N 51°19' E 004°20'0 0.0
2016-Apr-24 23:31N 51°19' E 004°20'0 0.0
2016-Apr-24 22:31N 51°19' E 004°20'0 0.0
2016-Apr-24 21:30N 51°19' E 004°20'0 0.0
2016-Apr-24 20:33N 51°19' E 004°20'0 0.0
2016-Apr-24 19:30N 51°19' E 004°20'0 0.0
2016-Apr-24 18:32N 51°19' E 004°20'0 0.0
2016-Apr-24 17:33N 51°19' E 004°20'2 2.1
2016-Apr-24 16:33N 51°21' E 004°17'4 4.4
2016-Apr-24 15:34N 51°24' E 004°12'1111.1
2016-Apr-24 14:34N 51°22' E 003°55'1212.2
2016-Apr-24 13:33N 51°26' E 003°36'1211.7
2016-Apr-24 12:33N 51°24' E 003°17'1414.5
2016-Apr-24 11:34N 51°22' E 002°55'10 9.9
2016-Apr-24 10:31N 51°26' E 002°39'0 0.3
2016-Apr-24 09:24N 51°26' E 002°39'0 0.0
2016-Apr-24 08:32N 51°26' E 002°39'0 0.0
2016-Apr-24 07:29N 51°26' E 002°39'5 5.2
2016-Apr-24 06:28N 51°22' E 002°32'1314.2
2016-Apr-24 05:33N 51°19' E 002°13'1515.5
2016-Apr-24 04:33N 51°28' E 001°53'1514.7
2016-Apr-24 03:33N 51°25' E 001°30'1312.8
2016-Apr-24 02:33N 51°29' E 001°10'1616.1
2016-Apr-24 01:33N 51°30' E 000°45'1313.4
2016-Apr-24 00:34N 51°27' E 000°24'2 2.3
2016-Apr-23 23:34N 51°27' E 000°20'0 0.0
2016-Apr-23 22:33N 51°27' E 000°20'0 0.0
2016-Apr-23 21:34N 51°27' E 000°20'0 0.0
2016-Apr-23 20:33N 51°27' E 000°20'0 0.0
2016-Apr-23 19:34N 51°27' E 000°20'  

Dump ship's entire track history